Evansville Regional (EVV)

 

Airport Diagram
Current Weather/Forecast (VFR Conditions)
METAR KEVV 290354Z AUTO 24008KT 10SM CLR 21/17 A2993 RMK AO2 SLP131 T02110167
TAF KEVV 282339Z 2900/2924 21007KT P6SM VCSH FEW030 SCT100 FM291200 24006KT P6SM VCSH OVC020 FM291400 27008KT P6SM VCSH OVC015 FM291600 29009KT P6SM VCSH BKN020 FM291800 30010KT P6SM BKN035 FM292000 32010G19KT P6SM SCT100

Airport Information

All Charts
General
Chart Name View
AIRPORT DIAGRAM
TAKEOFF MINIMUMS
ALTERNATE MINIMUMS
RADAR MINIMUMS
HOT SPOT

Approaches
Chart Name Download
ILS OR LOC RWY 04
ILS OR LOC RWY 22
RNAV (GPS) RWY 04
RNAV (GPS) RWY 18
RNAV (GPS) RWY 22
RNAV (GPS) RWY 36
VOR RWY 04


Airport Statistics
Departures Arrivals Local
All Collected Stats since June 2016: 111 97 2
2020 Stats: 23 20 0
May Stats: 5 5 0

Inbound Traffic (Arrivals) - 0

No inbound traffic.


Outbound Traffic (Departures) - 0

No outbound traffic.


Local Traffic (Pattern) - 0

No local traffic.